createdAt,value
2023-02-07T00:00:39.397Z,15.90
2023-02-07T00:03:42.507Z,12.13
2023-02-07T00:06:47.008Z,16.00
2023-02-07T00:09:50.221Z,15.15
2023-02-07T00:12:53.253Z,17.00
2023-02-07T00:15:56.259Z,20.88
2023-02-07T00:19:00.385Z,16.38
2023-02-07T00:22:04.929Z,18.00
2023-02-07T00:25:08.013Z,16.88
2023-02-07T00:28:11.238Z,13.57
2023-02-07T00:31:16.882Z,13.33
2023-02-07T00:34:20.062Z,14.80
2023-02-07T00:37:25.496Z,14.00
2023-02-07T00:40:28.638Z,16.83
2023-02-07T00:43:32.513Z,17.70
2023-02-07T00:46:36.936Z,12.07
2023-02-07T00:49:40.017Z,12.93
2023-02-07T00:52:44.389Z,14.23
2023-02-07T00:55:47.464Z,12.05
2023-02-07T00:58:51.082Z,12.27
2023-02-07T01:01:54.110Z,15.68
2023-02-07T01:04:57.135Z,12.38
2023-02-07T01:08:01.556Z,12.95
2023-02-07T01:11:07.894Z,13.15
2023-02-07T01:14:10.974Z,14.90
2023-02-07T01:17:13.998Z,15.00
2023-02-07T01:20:17.815Z,16.08
2023-02-07T01:23:22.323Z,12.93
2023-02-07T01:26:25.788Z,11.82
2023-02-07T01:29:29.072Z,14.30
2023-02-07T01:32:34.252Z,15.02
2023-02-07T01:35:39.814Z,17.60
2023-02-07T01:38:44.664Z,14.70
2023-02-07T01:41:47.592Z,15.23
2023-02-07T01:45:23.195Z,11.73
2023-02-07T01:48:36.021Z,12.40
2023-02-07T01:51:43.129Z,13.65
2023-02-07T01:54:52.274Z,13.38
2023-02-07T01:57:55.785Z,14.55
2023-02-07T02:01:00.036Z,16.05
2023-02-07T02:04:03.422Z,16.40
2023-02-07T02:07:08.950Z,17.60
2023-02-07T02:10:20.146Z,16.65
2023-02-07T02:13:33.788Z,20.08
2023-02-07T02:16:46.284Z,14.35
2023-02-07T02:20:38.436Z,17.60
2023-02-07T02:24:04.095Z,16.27
2023-02-07T02:27:24.368Z,24.30
2023-02-07T02:30:47.903Z,14.57
2023-02-07T02:34:01.304Z,13.27
2023-02-07T02:37:16.433Z,11.65
2023-02-07T02:40:30.153Z,12.43
2023-02-07T02:43:41.910Z,11.05
2023-02-07T02:46:49.766Z,10.45
2023-02-07T02:49:54.379Z,8.75
2023-02-07T02:52:57.604Z,9.55
2023-02-07T02:56:28.759Z,10.73
2023-02-07T03:00:06.424Z,7.90
2023-02-07T03:03:37.789Z,10.55
2023-02-07T03:07:04.447Z,11.35
2023-02-07T03:10:17.619Z,13.02
2023-02-07T03:13:30.640Z,8.15
2023-02-07T03:16:44.586Z,9.95
2023-02-07T03:19:53.224Z,9.40
2023-02-07T03:23:00.475Z,10.60
2023-02-07T03:26:06.605Z,9.20
2023-02-07T03:29:11.728Z,7.22
2023-02-07T03:32:17.830Z,12.75
2023-02-07T03:35:27.009Z,7.97
2023-02-07T03:38:31.894Z,9.43
2023-02-07T03:41:42.840Z,9.25
2023-02-07T03:44:48.559Z,9.80
2023-02-07T03:47:51.715Z,11.63
2023-02-07T03:50:54.799Z,8.07
2023-02-07T03:53:59.290Z,6.60
2023-02-07T03:57:02.364Z,8.18
2023-02-07T04:00:07.606Z,8.07
2023-02-07T04:03:10.678Z,6.78
2023-02-07T04:06:13.785Z,7.97
2023-02-07T04:09:18.304Z,6.55
2023-02-07T04:12:21.341Z,9.68
2023-02-07T04:15:24.317Z,7.72
2023-02-07T04:18:27.520Z,9.63
2023-02-07T04:21:30.597Z,7.10
2023-02-07T04:24:36.089Z,7.50
2023-02-07T04:27:39.062Z,10.30
2023-02-07T04:30:42.177Z,9.98
2023-02-07T04:33:45.302Z,7.63
2023-02-07T04:36:48.471Z,7.37
2023-02-07T04:39:52.888Z,11.10
2023-02-07T04:42:56.022Z,11.30
2023-02-07T04:45:59.352Z,10.00
2023-02-07T04:49:04.075Z,10.13
2023-02-07T04:52:07.334Z,8.85
2023-02-07T04:55:11.744Z,12.90
2023-02-07T04:58:14.809Z,13.25
2023-02-07T05:01:18.173Z,13.13
2023-02-07T05:04:21.315Z,12.80
2023-02-07T05:07:24.383Z,9.32
2023-02-07T05:10:28.860Z,13.05
2023-02-07T05:13:32.106Z,16.17
2023-02-07T05:16:35.267Z,10.53
2023-02-07T05:19:38.602Z,17.40
2023-02-07T05:22:41.841Z,11.55
2023-02-07T05:25:48.028Z,11.80
2023-02-07T05:28:51.091Z,10.80
2023-02-07T05:32:08.014Z,14.75
2023-02-07T05:35:11.919Z,11.55
2023-02-07T05:38:18.399Z,12.40
2023-02-07T05:41:22.951Z,14.45
2023-02-07T05:44:26.023Z,16.30
2023-02-07T05:47:29.372Z,16.15
2023-02-07T05:50:33.529Z,16.77
2023-02-07T05:53:36.533Z,13.68
2023-02-07T05:56:40.965Z,14.00
2023-02-07T05:59:44.064Z,17.40
2023-02-07T06:02:47.336Z,14.07
2023-02-07T06:05:50.467Z,13.18
2023-02-07T06:08:53.504Z,13.38
2023-02-07T06:11:58.132Z,12.85
2023-02-07T06:15:01.879Z,11.10
2023-02-07T06:18:05.222Z,12.68
2023-02-07T06:21:08.348Z,15.90
2023-02-07T06:24:11.494Z,17.27
2023-02-07T06:27:15.896Z,13.33
2023-02-07T06:30:19.532Z,16.70
2023-02-07T06:33:22.789Z,14.15
2023-02-07T06:36:25.798Z,14.37
2023-02-07T06:39:28.944Z,13.25
2023-02-07T06:42:33.487Z,16.07
2023-02-07T06:45:36.743Z,16.75
2023-02-07T06:48:40.096Z,13.93
2023-02-07T06:51:43.480Z,16.63
2023-02-07T06:54:46.529Z,17.63
2023-02-07T06:57:50.898Z,17.67
2023-02-07T07:00:54.383Z,23.33
2023-02-07T07:03:57.988Z,15.93
2023-02-07T07:07:01.589Z,14.75
2023-02-07T07:10:05.600Z,17.10
2023-02-07T07:13:09.983Z,14.57
2023-02-07T07:16:13.077Z,18.13
2023-02-07T07:19:16.526Z,16.30
2023-02-07T07:22:21.161Z,17.33
2023-02-07T07:25:24.761Z,16.52
2023-02-07T07:28:29.006Z,18.40
2023-02-07T07:31:32.272Z,17.60
2023-02-07T07:34:35.385Z,14.37
2023-02-07T07:37:38.606Z,16.05
2023-02-07T07:40:41.855Z,14.20
2023-02-07T07:43:46.164Z,11.67
2023-02-07T07:46:50.163Z,16.10
2023-02-07T07:49:53.369Z,16.15
2023-02-07T07:52:56.545Z,17.30
2023-02-07T07:55:59.759Z,13.30
2023-02-07T07:59:08.765Z,18.40
2023-02-07T08:02:15.333Z,17.70
2023-02-07T08:05:18.281Z,13.87
2023-02-07T08:08:21.797Z,19.20
2023-02-07T08:11:25.398Z,15.30
2023-02-07T08:14:30.135Z,15.35
2023-02-07T08:17:33.361Z,18.45
2023-02-07T08:20:37.332Z,18.70
2023-02-07T08:23:40.933Z,16.50
2023-02-07T08:26:44.209Z,17.43
2023-02-07T08:29:48.355Z,20.03
2023-02-07T08:35:55.505Z,17.17
2023-02-07T08:38:59.056Z,21.47
2023-02-07T08:42:02.279Z,15.10
2023-02-07T08:45:07.570Z,17.90
2023-02-07T08:48:10.760Z,19.02
2023-02-07T08:51:13.871Z,17.60
2023-02-07T08:54:17.091Z,17.13
2023-02-07T08:57:23.072Z,16.57
2023-02-07T09:00:27.385Z,14.27
2023-02-07T09:03:30.200Z,14.15
2023-02-07T09:06:33.228Z,13.40
2023-02-07T09:09:36.621Z,19.63
2023-02-07T09:12:40.330Z,16.50
2023-02-07T09:15:44.556Z,13.73
2023-02-07T09:18:47.361Z,16.20
2023-02-07T09:21:50.225Z,18.27
2023-02-07T09:24:53.109Z,16.02
2023-02-07T09:27:56.213Z,15.07
2023-02-07T09:31:00.616Z,16.75
2023-02-07T09:34:04.955Z,15.43
2023-02-07T09:37:07.773Z,15.90
2023-02-07T09:40:19.061Z,11.68
2023-02-07T09:43:39.193Z,15.90
2023-02-07T09:46:52.106Z,15.60
2023-02-07T09:50:01.138Z,17.20
2023-02-07T09:53:16.324Z,10.63
2023-02-07T09:56:20.415Z,12.85
2023-02-07T09:59:37.509Z,12.82
2023-02-07T10:02:49.676Z,13.60
2023-02-07T10:06:09.252Z,14.25
2023-02-07T10:09:24.892Z,15.07
2023-02-07T10:12:50.516Z,13.05
2023-02-07T10:16:14.481Z,14.25
2023-02-07T10:19:36.037Z,15.27
2023-02-07T10:22:52.877Z,15.82
2023-02-07T10:26:11.970Z,16.90
2023-02-07T10:29:33.583Z,16.60
2023-02-07T10:32:40.377Z,15.93
2023-02-07T10:35:47.065Z,15.20
2023-02-07T10:39:08.313Z,16.30
2023-02-07T10:42:16.825Z,12.55
2023-02-07T10:45:20.421Z,19.20
2023-02-07T10:48:23.295Z,14.70
2023-02-07T10:51:34.659Z,18.45
2023-02-07T10:54:54.069Z,14.55
2023-02-07T10:58:06.339Z,15.55
2023-02-07T11:01:23.483Z,13.55
2023-02-07T11:04:36.915Z,21.90
2023-02-07T11:07:47.703Z,18.20
2023-02-07T11:10:54.368Z,19.08
2023-02-07T11:14:05.604Z,20.98
2023-02-07T11:17:08.536Z,18.02
2023-02-07T11:20:27.572Z,17.17
2023-02-07T11:23:31.958Z,21.52
2023-02-07T11:26:41.663Z,19.10
2023-02-07T11:29:50.594Z,23.33
2023-02-07T11:33:02.174Z,24.40
2023-02-07T11:36:23.382Z,21.10
2023-02-07T11:39:27.525Z,21.20
2023-02-07T11:45:35.976Z,21.65
2023-02-07T11:48:40.984Z,22.20
2023-02-07T11:51:44.969Z,25.13
2023-02-07T11:54:57.054Z,26.80
2023-02-07T11:58:05.515Z,21.33
2023-02-07T12:01:09.441Z,25.08
2023-02-07T12:04:18.058Z,21.25
2023-02-07T12:07:27.432Z,26.67
2023-02-07T12:10:37.269Z,25.83
2023-02-07T12:13:46.323Z,26.80
2023-02-07T12:16:56.818Z,30.90
2023-02-07T12:20:09.795Z,28.40
2023-02-07T12:23:41.365Z,23.95
2023-02-07T12:26:54.781Z,25.92
2023-02-07T12:30:05.713Z,26.55
2023-02-07T12:33:18.594Z,22.33
2023-02-07T12:36:28.712Z,23.88
2023-02-07T12:39:40.490Z,26.67
2023-02-07T12:42:52.755Z,26.05
2023-02-07T12:46:22.921Z,29.13
2023-02-07T12:49:59.138Z,27.30
2023-02-07T12:53:25.140Z,23.50
2023-02-07T12:56:43.661Z,23.63
2023-02-07T13:00:06.043Z,26.58
2023-02-07T13:03:24.969Z,28.83
2023-02-07T13:06:39.636Z,25.90
2023-02-07T13:09:52.770Z,23.92
2023-02-07T13:13:05.144Z,25.38
2023-02-07T13:16:17.669Z,27.80
2023-02-07T13:19:32.731Z,27.33
2023-02-07T13:22:44.832Z,32.88
2023-02-07T13:25:54.027Z,28.30
2023-02-07T13:29:00.673Z,25.25
2023-02-07T13:32:12.316Z,25.35
2023-02-07T13:35:21.410Z,19.60
2023-02-07T13:38:41.525Z,23.40
2023-02-07T13:41:58.408Z,18.27
2023-02-07T13:45:16.121Z,19.88
2023-02-07T13:48:29.512Z,22.92
2023-02-07T13:51:51.749Z,22.52
2023-02-07T13:55:10.982Z,18.90
2023-02-07T13:59:11.409Z,24.27
2023-02-07T14:02:20.042Z,17.33
2023-02-07T14:05:29.640Z,24.40
2023-02-07T14:08:32.574Z,18.35
2023-02-07T14:11:41.205Z,16.98
2023-02-07T14:14:56.866Z,20.23
2023-02-07T14:18:07.334Z,22.48
2023-02-07T14:21:40.749Z,22.75
2023-02-07T14:25:11.860Z,19.73
2023-02-07T14:28:31.120Z,21.23
2023-02-07T14:31:34.430Z,23.15
2023-02-07T14:35:03.060Z,17.13
2023-02-07T14:38:29.608Z,22.08
2023-02-07T14:41:35.798Z,23.25
2023-02-07T14:44:43.437Z,20.70
2023-02-07T14:47:47.136Z,21.23
2023-02-07T14:50:54.595Z,23.90
2023-02-07T14:54:14.447Z,24.33
2023-02-07T14:57:33.872Z,24.70
2023-02-07T15:00:46.839Z,24.02
2023-02-07T15:04:02.792Z,27.33
2023-02-07T15:07:13.439Z,27.08
2023-02-07T15:10:23.626Z,24.52
2023-02-07T15:13:30.772Z,21.70
2023-02-07T15:16:38.251Z,22.73
2023-02-07T15:19:42.926Z,26.60
2023-02-07T15:22:49.806Z,25.65
2023-02-07T15:25:54.048Z,25.02
2023-02-07T15:29:00.380Z,24.60
2023-02-07T15:32:22.627Z,32.45
2023-02-07T15:35:30.585Z,26.48
2023-02-07T15:38:34.181Z,30.60
2023-02-07T15:41:38.371Z,34.75
2023-02-07T15:44:50.312Z,30.55
2023-02-07T15:48:02.775Z,30.45
2023-02-07T15:51:06.967Z,31.58
2023-02-07T15:54:18.190Z,32.72
2023-02-07T15:57:28.347Z,26.73
2023-02-07T16:00:38.745Z,30.30
2023-02-07T16:03:45.646Z,32.38
2023-02-07T16:06:58.932Z,31.95
2023-02-07T16:10:20.180Z,33.28
2023-02-07T16:13:24.738Z,31.70
2023-02-07T16:16:33.359Z,30.50
2023-02-07T16:19:36.554Z,30.33
2023-02-07T16:22:39.737Z,28.13
2023-02-07T16:25:42.969Z,34.40
2023-02-07T16:28:48.416Z,31.20
2023-02-07T16:31:52.137Z,27.33
2023-02-07T16:34:59.915Z,28.85
2023-02-07T16:38:03.478Z,29.20
2023-02-07T16:41:06.755Z,30.53
2023-02-07T16:44:15.894Z,32.43
2023-02-07T16:47:19.429Z,30.48
2023-02-07T16:50:24.525Z,34.03
2023-02-07T16:53:27.884Z,35.70
2023-02-07T16:56:31.048Z,34.10
2023-02-07T16:59:35.259Z,37.30
2023-02-07T17:02:38.424Z,31.35
2023-02-07T17:05:41.664Z,36.00
2023-02-07T17:08:45.065Z,27.77
2023-02-07T17:11:48.276Z,27.50
2023-02-07T17:14:54.028Z,24.05
2023-02-07T17:17:59.180Z,29.27
2023-02-07T17:21:02.543Z,26.98
2023-02-07T17:24:06.480Z,29.17
2023-02-07T17:27:11.017Z,21.40
2023-02-07T17:30:20.218Z,22.55
2023-02-07T17:33:23.408Z,21.67
2023-02-07T17:36:28.714Z,23.10
2023-02-07T17:39:31.884Z,26.38
2023-02-07T17:42:35.078Z,25.07
2023-02-07T17:45:39.558Z,21.87
2023-02-07T17:48:43.040Z,22.30
2023-02-07T17:51:46.465Z,24.58
2023-02-07T17:54:49.646Z,25.77
2023-02-07T17:57:52.852Z,21.80
2023-02-07T18:00:57.135Z,22.17
2023-02-07T18:04:00.548Z,20.02
2023-02-07T18:07:03.793Z,18.35
2023-02-07T18:10:09.887Z,18.67
2023-02-07T18:13:12.677Z,23.92
2023-02-07T18:16:23.099Z,22.60
2023-02-07T18:19:25.894Z,20.25
2023-02-07T18:22:28.731Z,24.02
2023-02-07T18:25:32.284Z,18.88
2023-02-07T18:28:35.554Z,23.23
2023-02-07T18:31:39.836Z,22.73
2023-02-07T18:34:44.558Z,21.95
2023-02-07T18:37:47.838Z,21.00
2023-02-07T18:40:50.806Z,24.80
2023-02-07T18:43:53.691Z,27.60
2023-02-07T18:46:57.876Z,22.30
2023-02-07T18:50:00.773Z,30.45
2023-02-07T18:53:05.224Z,21.92
2023-02-07T18:56:11.791Z,22.80
2023-02-07T18:59:17.226Z,21.58
2023-02-07T19:02:22.363Z,20.23
2023-02-07T19:05:25.580Z,23.10
2023-02-07T19:08:29.018Z,28.43
2023-02-07T19:11:32.141Z,25.02
2023-02-07T19:14:35.458Z,28.57
2023-02-07T19:17:39.651Z,25.80
2023-02-07T19:23:45.556Z,24.95
2023-02-07T19:26:51.004Z,24.27
2023-02-07T19:29:53.941Z,27.65
2023-02-07T19:32:58.829Z,24.10
2023-02-07T19:36:06.772Z,23.77
2023-02-07T19:39:10.020Z,20.40
2023-02-07T19:42:12.913Z,18.73
2023-02-07T19:45:15.803Z,21.92
2023-02-07T19:48:19.936Z,20.67
2023-02-07T19:54:27.868Z,20.45
2023-02-07T19:57:33.408Z,21.73
2023-02-07T20:00:36.338Z,21.63
2023-02-07T20:03:41.260Z,20.15
2023-02-07T20:06:44.122Z,21.52
2023-02-07T20:09:47.185Z,23.00
2023-02-07T20:12:49.974Z,19.38
2023-02-07T20:15:52.837Z,20.98
2023-02-07T20:18:56.997Z,20.77
2023-02-07T20:25:03.040Z,20.73
2023-02-07T20:28:07.613Z,22.42
2023-02-07T20:31:14.128Z,20.15
2023-02-07T20:34:18.514Z,20.33
2023-02-07T20:37:21.303Z,26.10
2023-02-07T20:40:24.228Z,24.10
2023-02-07T20:43:27.119Z,22.90
2023-02-07T20:46:31.783Z,27.60
2023-02-07T20:49:36.036Z,21.98
2023-02-07T20:52:38.938Z,19.98
2023-02-07T20:55:41.725Z,17.85
2023-02-07T20:58:46.780Z,20.40
2023-02-07T21:01:50.236Z,22.58
2023-02-07T21:04:54.402Z,20.52
2023-02-07T21:07:57.326Z,19.75
2023-02-07T21:11:00.788Z,19.60
2023-02-07T21:14:06.207Z,18.80
2023-02-07T21:17:09.597Z,19.48
2023-02-07T21:20:16.131Z,19.40
2023-02-07T21:23:19.562Z,18.88
2023-02-07T21:26:22.454Z,21.70
2023-02-07T21:29:26.836Z,17.25
2023-02-07T21:32:29.666Z,18.77
2023-02-07T21:35:34.123Z,21.08
2023-02-07T21:38:39.977Z,19.38
2023-02-07T21:41:45.276Z,19.30
2023-02-07T21:44:48.166Z,19.35
2023-02-07T21:47:51.014Z,19.88
2023-02-07T21:50:55.287Z,22.80
2023-02-07T21:53:59.014Z,17.63
2023-02-07T21:57:01.791Z,21.80
2023-02-07T22:00:08.030Z,19.95
2023-02-07T22:03:12.335Z,20.95
2023-02-07T22:06:22.087Z,19.15
2023-02-07T22:09:24.951Z,23.40
2023-02-07T22:12:27.800Z,18.85
2023-02-07T22:15:32.158Z,21.20
2023-02-07T22:18:36.916Z,20.42
2023-02-07T22:21:41.338Z,19.50
2023-02-07T22:24:44.357Z,19.80
2023-02-07T22:27:47.236Z,20.52
2023-02-07T22:30:50.381Z,19.05
2023-02-07T22:33:55.914Z,20.03
2023-02-07T22:37:00.069Z,18.80
2023-02-07T22:40:02.952Z,20.77
2023-02-07T22:43:12.389Z,20.30
2023-02-07T22:46:18.502Z,19.60
2023-02-07T22:49:21.417Z,20.27
2023-02-07T22:52:25.532Z,19.10
2023-02-07T22:58:32.282Z,17.42
2023-02-07T23:01:38.780Z,29.73
2023-02-07T23:04:42.046Z,24.60
2023-02-07T23:07:48.212Z,19.50
2023-02-07T23:10:51.254Z,21.60
2023-02-07T23:13:55.274Z,20.83
2023-02-07T23:20:01.460Z,18.23
2023-02-07T23:23:06.366Z,24.83
2023-02-07T23:26:11.577Z,19.92
2023-02-07T23:29:14.625Z,22.55
2023-02-07T23:32:23.864Z,21.30
2023-02-07T23:35:26.901Z,20.55
2023-02-07T23:38:31.768Z,19.95
2023-02-07T23:41:34.915Z,19.60
2023-02-07T23:44:38.410Z,16.87
2023-02-07T23:47:41.456Z,18.58
2023-02-07T23:50:44.636Z,18.30
2023-02-07T23:53:49.229Z,18.90
2023-02-07T23:56:52.289Z,20.77
2023-02-07T23:59:55.428Z,20.73
